createdAt,value
2023-01-29T00:02:13.894Z,26.97
2023-01-29T00:04:41.601Z,26.79
2023-01-29T00:07:08.812Z,26.43
2023-01-29T00:09:36.414Z,27.23
2023-01-29T00:12:03.428Z,26.52
2023-01-29T00:14:30.155Z,26.93
2023-01-29T00:17:00.903Z,27.56
2023-01-29T00:19:28.131Z,26.75
2023-01-29T00:21:56.057Z,27.01
2023-01-29T00:24:23.176Z,27.36
2023-01-29T00:26:49.989Z,26.96
2023-01-29T00:29:17.575Z,27.37
2023-01-29T00:31:45.620Z,27.31
2023-01-29T00:34:12.556Z,27.16
2023-01-29T00:36:39.394Z,26.54
2023-01-29T00:39:12.250Z,27.78
2023-01-29T00:41:40.587Z,27.66
2023-01-29T00:44:07.359Z,27.40
2023-01-29T00:46:34.483Z,27.76
2023-01-29T00:49:01.659Z,27.28
2023-01-29T00:51:28.412Z,27.21
2023-01-29T00:53:56.730Z,27.06
2023-01-29T00:56:23.779Z,27.80
2023-01-29T00:58:53.652Z,27.01
2023-01-29T01:01:21.809Z,26.98
2023-01-29T01:03:49.022Z,27.19
2023-01-29T01:06:21.923Z,27.66
2023-01-29T01:08:48.800Z,28.30
2023-01-29T01:11:16.785Z,27.81
2023-01-29T01:13:43.597Z,27.71
2023-01-29T01:16:11.961Z,28.19
2023-01-29T01:18:41.835Z,27.96
2023-01-29T01:21:08.748Z,27.05
2023-01-29T01:23:36.605Z,27.40
2023-01-29T01:26:07.030Z,27.11
2023-01-29T01:28:33.776Z,26.72
2023-01-29T01:31:08.489Z,28.90
2023-01-29T01:33:35.475Z,28.26
2023-01-29T01:36:02.536Z,28.37
2023-01-29T01:38:29.250Z,28.31
2023-01-29T01:40:56.444Z,27.70
2023-01-29T01:43:24.187Z,27.19
2023-01-29T01:45:52.336Z,28.61
2023-01-29T01:48:24.402Z,28.33
2023-01-29T01:50:54.508Z,28.41
2023-01-29T01:53:26.842Z,28.41
2023-01-29T01:55:57.281Z,28.28
2023-01-29T01:58:32.377Z,28.51
2023-01-29T02:01:02.687Z,28.21
2023-01-29T02:03:35.728Z,27.69
2023-01-29T02:06:02.450Z,28.96
2023-01-29T02:08:43.899Z,28.59
2023-01-29T02:11:10.862Z,28.54
2023-01-29T02:13:37.632Z,28.81
2023-01-29T02:16:05.167Z,28.84
2023-01-29T02:18:32.557Z,28.44
2023-01-29T02:21:40.095Z,28.70
2023-01-29T02:24:44.582Z,28.67
2023-01-29T02:27:14.241Z,28.40
2023-01-29T02:29:59.206Z,27.43
2023-01-29T02:32:47.771Z,28.45
2023-01-29T02:35:28.630Z,28.11
2023-01-29T02:38:29.291Z,28.68
2023-01-29T02:41:08.264Z,27.99
2023-01-29T02:43:50.359Z,27.21
2023-01-29T02:46:28.044Z,27.15
2023-01-29T02:49:35.074Z,26.87
2023-01-29T02:52:17.453Z,26.78
2023-01-29T02:54:51.797Z,27.38
2023-01-29T02:57:23.230Z,26.84
2023-01-29T02:59:55.865Z,26.48
2023-01-29T03:02:27.142Z,26.91
2023-01-29T03:04:58.171Z,26.48
2023-01-29T03:07:31.901Z,26.77
2023-01-29T03:09:59.151Z,26.61
2023-01-29T03:12:26.816Z,26.07
2023-01-29T03:14:53.903Z,26.75
2023-01-29T03:17:21.888Z,27.05
2023-01-29T03:19:48.973Z,27.00
2023-01-29T03:22:18.682Z,26.69
2023-01-29T03:24:51.480Z,26.44
2023-01-29T03:27:18.928Z,27.38
2023-01-29T03:29:46.186Z,25.71
2023-01-29T03:32:13.001Z,26.32
2023-01-29T03:34:41.766Z,26.51
2023-01-29T03:37:47.996Z,26.59
2023-01-29T03:40:18.120Z,25.42
2023-01-29T03:43:01.986Z,25.57
2023-01-29T03:45:36.384Z,25.95
2023-01-29T03:48:15.564Z,25.16
2023-01-29T03:51:07.469Z,26.41
2023-01-29T03:54:19.872Z,25.88
2023-01-29T03:57:20.271Z,25.78
2023-01-29T04:00:13.913Z,25.84
2023-01-29T04:03:09.456Z,25.86
2023-01-29T04:05:54.715Z,25.41
2023-01-29T04:08:25.881Z,25.85
2023-01-29T04:10:52.970Z,25.65
2023-01-29T04:13:20.184Z,25.67
2023-01-29T04:15:49.373Z,26.65
2023-01-29T04:18:19.047Z,25.36
2023-01-29T04:20:45.781Z,25.49
2023-01-29T04:23:24.605Z,25.74
2023-01-29T04:25:56.597Z,24.91
2023-01-29T04:28:45.705Z,25.28
2023-01-29T04:31:57.231Z,25.60
2023-01-29T04:34:50.368Z,25.36
2023-01-29T04:37:22.804Z,25.86
2023-01-29T04:40:10.489Z,26.95
2023-01-29T04:42:43.687Z,25.45
2023-01-29T04:45:18.678Z,24.80
2023-01-29T04:48:04.350Z,25.42
2023-01-29T04:50:41.573Z,25.51
2023-01-29T04:53:42.278Z,25.30
2023-01-29T04:59:39.331Z,26.19
2023-01-29T05:02:09.537Z,25.82
2023-01-29T05:04:36.630Z,26.41
2023-01-29T05:07:04.756Z,26.05
2023-01-29T05:09:32.082Z,25.68
2023-01-29T05:11:58.900Z,25.80
2023-01-29T05:14:28.825Z,25.50
2023-01-29T05:16:55.678Z,26.15
2023-01-29T05:19:22.457Z,25.88
2023-01-29T05:21:50.307Z,26.30
2023-01-29T05:24:27.216Z,26.35
2023-01-29T05:26:54.623Z,25.63
2023-01-29T05:29:22.712Z,25.29
2023-01-29T05:35:12.644Z,25.02
2023-01-29T05:37:40.604Z,25.63
2023-01-29T05:40:08.258Z,25.83
2023-01-29T05:42:35.287Z,26.46
2023-01-29T05:45:02.332Z,26.83
2023-01-29T05:47:29.472Z,26.21
2023-01-29T05:49:56.574Z,26.53
2023-01-29T05:52:26.435Z,26.35
2023-01-29T05:54:53.363Z,26.84
2023-01-29T05:57:20.336Z,26.48
2023-01-29T05:59:47.414Z,26.45
2023-01-29T06:02:14.572Z,25.75
2023-01-29T06:04:42.049Z,25.68
2023-01-29T06:07:08.824Z,25.10
2023-01-29T06:09:36.297Z,25.36
2023-01-29T06:12:03.759Z,26.03
2023-01-29T06:14:30.464Z,25.97
2023-01-29T06:16:57.250Z,25.91
2023-01-29T06:19:23.915Z,25.06
2023-01-29T06:21:50.691Z,26.34
2023-01-29T06:24:17.592Z,25.76
2023-01-29T06:26:44.748Z,25.27
2023-01-29T06:29:11.916Z,25.92
2023-01-29T06:31:41.951Z,25.40
2023-01-29T06:34:08.786Z,25.63
2023-01-29T06:36:35.819Z,25.77
2023-01-29T06:39:02.794Z,25.89
2023-01-29T06:41:29.821Z,25.00
2023-01-29T06:43:57.533Z,25.21
2023-01-29T06:46:24.888Z,25.91
2023-01-29T06:48:52.834Z,25.54
2023-01-29T06:51:19.943Z,25.26
2023-01-29T06:53:47.048Z,24.83
2023-01-29T06:56:15.118Z,25.31
2023-01-29T06:58:44.131Z,26.12
2023-01-29T07:01:29.221Z,26.42
2023-01-29T07:04:01.116Z,26.24
2023-01-29T07:06:28.991Z,25.68
2023-01-29T07:08:56.090Z,25.51
2023-01-29T07:11:22.817Z,25.62
2023-01-29T07:13:50.360Z,25.74
2023-01-29T07:16:17.560Z,25.82
2023-01-29T07:18:48.621Z,26.40
2023-01-29T07:21:16.608Z,25.57
2023-01-29T07:23:44.197Z,25.24
2023-01-29T07:26:11.347Z,25.72
2023-01-29T07:28:38.800Z,25.92
2023-01-29T07:31:05.829Z,26.26
2023-01-29T07:33:33.166Z,25.67
2023-01-29T07:35:59.878Z,26.02
2023-01-29T07:38:31.813Z,26.25
2023-01-29T07:40:59.050Z,25.63
2023-01-29T07:43:26.307Z,25.29
2023-01-29T07:45:53.443Z,25.29
2023-01-29T07:48:20.357Z,25.45
2023-01-29T07:50:55.740Z,25.95
2023-01-29T07:53:22.945Z,26.14
2023-01-29T07:55:50.044Z,26.29
2023-01-29T07:58:17.185Z,26.78
2023-01-29T08:00:44.339Z,26.74
2023-01-29T08:03:13.294Z,25.87
2023-01-29T08:05:40.439Z,26.16
2023-01-29T08:08:08.088Z,25.76
2023-01-29T08:10:40.465Z,25.46
2023-01-29T08:13:07.271Z,25.70
2023-01-29T08:15:34.361Z,26.11
2023-01-29T08:18:03.871Z,25.86
2023-01-29T08:20:31.033Z,26.68
2023-01-29T08:23:05.318Z,26.49
2023-01-29T08:25:38.960Z,25.85
2023-01-29T08:28:06.063Z,25.81
2023-01-29T08:30:33.841Z,25.86
2023-01-29T08:33:00.833Z,26.16
2023-01-29T08:35:27.776Z,26.26
2023-01-29T08:37:55.688Z,25.70
2023-01-29T08:40:23.226Z,26.49
2023-01-29T08:42:50.301Z,25.77
2023-01-29T08:45:17.860Z,26.17
2023-01-29T08:47:48.161Z,25.71
2023-01-29T08:50:16.199Z,25.75
2023-01-29T08:52:44.748Z,25.70
2023-01-29T08:55:14.784Z,25.80
2023-01-29T08:57:41.868Z,25.18
2023-01-29T09:00:10.001Z,25.59
2023-01-29T09:02:37.365Z,26.00
2023-01-29T09:05:04.930Z,25.37
2023-01-29T09:07:32.334Z,25.29
2023-01-29T09:09:59.433Z,25.23
2023-01-29T09:12:26.315Z,25.59
2023-01-29T09:14:53.429Z,24.99
2023-01-29T09:17:20.680Z,24.62
2023-01-29T09:19:47.420Z,25.72
2023-01-29T09:22:14.129Z,25.70
2023-01-29T09:24:41.472Z,25.54
2023-01-29T09:27:08.249Z,24.66
2023-01-29T09:29:36.001Z,24.04
2023-01-29T09:32:04.347Z,24.37
2023-01-29T09:34:31.055Z,24.57
2023-01-29T09:36:58.535Z,23.35
2023-01-29T09:39:25.295Z,24.15
2023-01-29T09:41:59.473Z,23.77
2023-01-29T09:44:53.913Z,23.47
2023-01-29T09:47:22.741Z,23.60
2023-01-29T09:50:10.868Z,23.78
2023-01-29T09:56:21.483Z,23.40
2023-01-29T09:58:48.610Z,24.10
2023-01-29T10:01:48.101Z,24.69
2023-01-29T10:04:51.506Z,25.85
2023-01-29T10:07:43.336Z,25.47
2023-01-29T10:10:23.941Z,25.54
2023-01-29T10:12:50.692Z,27.04
2023-01-29T10:15:38.770Z,26.62
2023-01-29T10:18:29.131Z,25.83
2023-01-29T10:24:07.481Z,26.85
2023-01-29T10:26:34.445Z,26.71
2023-01-29T10:29:01.240Z,26.31
2023-01-29T10:31:33.173Z,26.42
2023-01-29T10:34:24.001Z,26.67
2023-01-29T10:36:50.780Z,27.05
2023-01-29T10:39:25.549Z,27.11
2023-01-29T10:42:16.128Z,26.31
2023-01-29T10:45:10.640Z,26.27
2023-01-29T10:48:14.503Z,26.92
2023-01-29T10:51:02.013Z,26.86
2023-01-29T10:53:41.819Z,26.15
2023-01-29T10:56:28.902Z,27.36
2023-01-29T10:59:03.358Z,26.96
2023-01-29T11:01:30.496Z,27.12
2023-01-29T11:03:59.632Z,27.36
2023-01-29T11:06:44.849Z,28.47
2023-01-29T11:09:42.958Z,26.08
2023-01-29T11:12:30.863Z,24.96
2023-01-29T11:15:06.843Z,25.44
2023-01-29T11:17:34.465Z,24.87
2023-01-29T11:20:01.530Z,24.51
2023-01-29T11:22:29.884Z,24.56
2023-01-29T11:25:19.025Z,24.72
2023-01-29T11:27:49.369Z,24.42
2023-01-29T11:30:32.392Z,25.04
2023-01-29T11:33:10.076Z,24.70
2023-01-29T11:35:39.770Z,25.20
2023-01-29T11:38:28.751Z,24.75
2023-01-29T11:41:06.552Z,24.87
2023-01-29T11:43:34.283Z,24.65
2023-01-29T11:46:11.680Z,24.55
2023-01-29T11:48:46.544Z,25.47
2023-01-29T11:51:21.508Z,25.13
2023-01-29T11:54:10.236Z,25.07
2023-01-29T11:56:43.216Z,24.58
2023-01-29T11:59:42.875Z,24.77
2023-01-29T12:02:54.209Z,25.22
2023-01-29T12:05:25.133Z,24.75
2023-01-29T12:07:54.013Z,24.73
2023-01-29T12:10:48.400Z,25.17
2023-01-29T12:13:25.826Z,24.82
2023-01-29T12:16:09.181Z,25.75
2023-01-29T12:18:38.362Z,25.87
2023-01-29T12:21:33.663Z,24.49
2023-01-29T12:24:49.224Z,25.49
2023-01-29T12:27:36.930Z,25.11
2023-01-29T12:30:44.099Z,24.60
2023-01-29T12:33:51.356Z,25.67
2023-01-29T12:36:24.073Z,25.58
2023-01-29T12:38:50.777Z,24.97
2023-01-29T12:41:57.327Z,25.32
2023-01-29T12:44:48.995Z,25.27
2023-01-29T12:47:27.143Z,26.52
2023-01-29T12:49:57.096Z,26.36
2023-01-29T12:52:46.311Z,26.51
2023-01-29T12:55:16.405Z,26.56
2023-01-29T12:58:14.971Z,26.25
2023-01-29T13:00:46.237Z,25.99
2023-01-29T13:03:39.702Z,26.29
2023-01-29T13:06:08.276Z,26.32
2023-01-29T13:08:54.161Z,26.17
2023-01-29T13:11:30.687Z,25.89
2023-01-29T13:14:08.992Z,26.41
2023-01-29T13:16:47.495Z,26.33
2023-01-29T13:19:38.817Z,26.06
2023-01-29T13:22:20.309Z,25.89
2023-01-29T13:25:02.286Z,26.68
2023-01-29T13:27:31.613Z,25.62
2023-01-29T13:30:03.650Z,26.26
2023-01-29T13:32:31.850Z,26.08
2023-01-29T13:35:22.075Z,25.64
2023-01-29T13:37:50.875Z,25.60
2023-01-29T13:40:25.732Z,25.56
2023-01-29T13:42:57.280Z,25.96
2023-01-29T13:45:36.158Z,26.66
2023-01-29T13:48:26.280Z,25.67
2023-01-29T13:50:53.895Z,26.47
2023-01-29T13:53:23.381Z,26.11
2023-01-29T13:55:50.895Z,26.10
2023-01-29T13:58:38.577Z,25.53
2023-01-29T14:01:05.748Z,25.59
2023-01-29T14:04:03.853Z,25.92
2023-01-29T14:06:40.115Z,25.51
2023-01-29T14:09:37.955Z,25.29
2023-01-29T14:12:36.425Z,25.58
2023-01-29T14:15:16.865Z,26.45
2023-01-29T14:18:05.670Z,26.89
2023-01-29T14:20:48.726Z,25.77
2023-01-29T14:23:23.692Z,26.30
2023-01-29T14:25:50.485Z,25.82
2023-01-29T14:28:43.227Z,26.14
2023-01-29T14:31:10.472Z,26.77
2023-01-29T14:33:39.867Z,27.45
2023-01-29T14:36:12.696Z,26.20
2023-01-29T14:38:40.394Z,26.63
2023-01-29T14:41:28.771Z,26.73
2023-01-29T14:44:40.360Z,26.77
2023-01-29T14:47:17.797Z,26.15
2023-01-29T14:49:57.894Z,27.21
2023-01-29T14:52:37.471Z,27.32
2023-01-29T14:55:08.038Z,27.33
2023-01-29T14:57:35.100Z,27.50
2023-01-29T15:00:18.528Z,26.26
2023-01-29T15:02:45.698Z,26.84
2023-01-29T15:05:17.626Z,26.30
2023-01-29T15:07:57.245Z,26.48
2023-01-29T15:10:33.488Z,26.73
2023-01-29T15:13:22.788Z,26.14
2023-01-29T15:15:57.201Z,26.64
2023-01-29T15:18:34.777Z,26.93
2023-01-29T15:21:04.666Z,26.91
2023-01-29T15:23:42.801Z,26.45
2023-01-29T15:26:17.488Z,25.98
2023-01-29T15:28:47.251Z,26.93
2023-01-29T15:31:18.676Z,25.94
2023-01-29T15:33:45.976Z,26.19
2023-01-29T15:36:18.937Z,26.66
2023-01-29T15:38:45.689Z,26.79
2023-01-29T15:41:20.160Z,26.54
2023-01-29T15:43:48.408Z,27.09
2023-01-29T15:46:27.120Z,27.40
2023-01-29T15:48:54.616Z,25.75
2023-01-29T15:51:24.055Z,26.56
2023-01-29T15:54:01.878Z,26.94
2023-01-29T15:56:37.400Z,26.61
2023-01-29T15:59:09.389Z,26.32
2023-01-29T16:01:36.665Z,26.86
2023-01-29T16:04:03.482Z,26.29
2023-01-29T16:06:35.962Z,26.07
2023-01-29T16:09:03.352Z,27.16
2023-01-29T16:11:30.327Z,29.84
2023-01-29T16:13:57.012Z,27.84
2023-01-29T16:16:24.428Z,26.97
2023-01-29T16:18:59.532Z,28.06
2023-01-29T16:21:35.218Z,32.28
2023-01-29T16:24:01.773Z,28.52
2023-01-29T16:26:30.614Z,31.97
2023-01-29T16:28:57.379Z,33.52
2023-01-29T16:31:27.098Z,30.21
2023-01-29T16:33:54.432Z,30.30
2023-01-29T16:36:23.103Z,29.19
2023-01-29T16:39:11.094Z,36.25
2023-01-29T16:41:37.812Z,28.68
2023-01-29T16:44:16.771Z,27.71
2023-01-29T16:46:47.568Z,28.62
2023-01-29T16:49:28.999Z,27.73
2023-01-29T16:51:55.725Z,28.26
2023-01-29T16:54:25.890Z,29.44
2023-01-29T16:56:54.396Z,30.71
2023-01-29T16:59:23.636Z,32.06
2023-01-29T17:01:50.871Z,29.16
2023-01-29T17:04:18.055Z,32.45
2023-01-29T17:06:46.525Z,30.43
2023-01-29T17:09:28.538Z,30.67
2023-01-29T17:11:59.540Z,30.01
2023-01-29T17:14:26.584Z,31.26
2023-01-29T17:17:03.814Z,33.17
2023-01-29T17:19:30.675Z,32.30
2023-01-29T17:21:57.506Z,32.14
2023-01-29T17:24:24.276Z,36.32
2023-01-29T17:26:51.108Z,38.39
2023-01-29T17:29:21.079Z,37.08
2023-01-29T17:31:47.790Z,37.08
2023-01-29T17:34:14.893Z,35.97
2023-01-29T17:36:45.016Z,38.41
2023-01-29T17:39:23.608Z,38.41
2023-01-29T17:41:51.512Z,36.92
2023-01-29T17:44:20.358Z,39.08
2023-01-29T17:46:48.399Z,34.54
2023-01-29T17:49:27.821Z,33.93
2023-01-29T17:52:01.806Z,34.07
2023-01-29T17:54:31.511Z,34.54
2023-01-29T17:56:59.775Z,35.29
2023-01-29T17:59:31.361Z,33.09
2023-01-29T18:01:58.681Z,31.96
2023-01-29T18:04:28.524Z,33.34
2023-01-29T18:06:55.364Z,33.16
2023-01-29T18:09:22.523Z,33.80
2023-01-29T18:11:49.776Z,33.68
2023-01-29T18:14:16.634Z,33.62
2023-01-29T18:16:43.697Z,34.81
2023-01-29T18:19:13.156Z,35.40
2023-01-29T18:21:50.763Z,37.56
2023-01-29T18:24:18.373Z,38.85
2023-01-29T18:26:45.594Z,38.42
2023-01-29T18:29:13.844Z,38.04
2023-01-29T18:31:43.386Z,38.34
2023-01-29T18:34:10.196Z,39.05
2023-01-29T18:36:37.793Z,40.03
2023-01-29T18:39:05.026Z,39.56
2023-01-29T18:41:32.495Z,42.32
2023-01-29T18:43:59.780Z,42.32
2023-01-29T18:46:27.123Z,43.29
2023-01-29T18:48:54.187Z,43.37
2023-01-29T18:51:20.886Z,44.36
2023-01-29T18:53:52.487Z,44.82
2023-01-29T18:56:20.246Z,46.01
2023-01-29T18:58:52.129Z,45.93
2023-01-29T19:01:22.191Z,53.66
2023-01-29T19:03:49.018Z,53.54
2023-01-29T19:06:15.912Z,49.29
2023-01-29T19:08:43.665Z,51.13
2023-01-29T19:11:11.709Z,49.33
2023-01-29T19:13:38.545Z,48.88
2023-01-29T19:16:16.427Z,48.71
2023-01-29T19:18:44.026Z,47.72
2023-01-29T19:21:14.873Z,47.59
2023-01-29T19:23:42.300Z,46.88
2023-01-29T19:26:09.614Z,45.25
2023-01-29T19:28:39.309Z,43.26
2023-01-29T19:31:06.094Z,43.03
2023-01-29T19:33:32.858Z,43.66
2023-01-29T19:35:59.770Z,44.33
2023-01-29T19:38:26.739Z,44.17
2023-01-29T19:40:53.482Z,43.86
2023-01-29T19:43:20.564Z,43.46
2023-01-29T19:45:56.545Z,42.13
2023-01-29T19:48:23.362Z,41.54
2023-01-29T19:51:00.854Z,41.48
2023-01-29T19:53:28.662Z,39.35
2023-01-29T19:56:03.295Z,39.12
2023-01-29T19:58:30.286Z,39.26
2023-01-29T20:01:02.233Z,38.08
2023-01-29T20:03:29.064Z,39.33
2023-01-29T20:05:56.584Z,38.47
2023-01-29T20:08:23.643Z,38.58
2023-01-29T20:10:50.462Z,38.27
2023-01-29T20:13:17.256Z,38.92
2023-01-29T20:15:47.696Z,39.87
2023-01-29T20:18:14.421Z,40.77
2023-01-29T20:20:46.347Z,40.37
2023-01-29T20:23:25.055Z,40.79
2023-01-29T20:26:02.470Z,40.49
2023-01-29T20:28:29.377Z,39.99
2023-01-29T20:30:56.147Z,39.82
2023-01-29T20:33:23.454Z,39.70
2023-01-29T20:35:58.012Z,39.31
2023-01-29T20:38:26.488Z,40.28
2023-01-29T20:41:13.713Z,39.73
2023-01-29T20:43:40.635Z,39.55
2023-01-29T20:46:07.601Z,38.47
2023-01-29T20:48:34.458Z,38.69
2023-01-29T20:51:09.270Z,37.50
2023-01-29T20:53:36.350Z,37.19
2023-01-29T20:56:04.621Z,36.31
2023-01-29T20:58:31.761Z,36.14
2023-01-29T21:00:58.535Z,34.77
2023-01-29T21:03:25.807Z,35.91
2023-01-29T21:05:52.637Z,35.59
2023-01-29T21:08:19.327Z,34.15
2023-01-29T21:10:47.709Z,34.41
2023-01-29T21:13:14.523Z,34.37
2023-01-29T21:15:43.502Z,35.99
2023-01-29T21:18:13.157Z,35.90
2023-01-29T21:20:40.058Z,36.41
2023-01-29T21:23:25.859Z,35.87
2023-01-29T21:25:52.618Z,35.76
2023-01-29T21:28:19.360Z,36.14
2023-01-29T21:30:46.523Z,35.59
2023-01-29T21:33:13.386Z,36.71
2023-01-29T21:35:40.181Z,36.79
2023-01-29T21:38:07.347Z,36.62
2023-01-29T21:40:36.942Z,37.38
2023-01-29T21:43:04.757Z,36.28
2023-01-29T21:45:31.467Z,36.96
2023-01-29T21:47:58.238Z,36.09
2023-01-29T21:50:25.017Z,34.82
2023-01-29T21:52:51.830Z,34.21
2023-01-29T21:55:18.685Z,33.33
2023-01-29T21:57:46.453Z,33.41
2023-01-29T22:00:13.646Z,33.38
2023-01-29T22:02:40.414Z,33.93
2023-01-29T22:05:18.134Z,34.41
2023-01-29T22:07:47.099Z,34.28
2023-01-29T22:10:14.166Z,34.80
2023-01-29T22:12:42.697Z,35.37
2023-01-29T22:15:09.960Z,36.61
2023-01-29T22:17:36.653Z,37.20
2023-01-29T22:20:03.512Z,38.05
2023-01-29T22:22:30.272Z,37.63
2023-01-29T22:25:02.239Z,38.68
2023-01-29T22:27:28.941Z,38.34
2023-01-29T22:29:55.646Z,37.96
2023-01-29T22:32:22.807Z,38.42
2023-01-29T22:34:49.832Z,36.22
2023-01-29T22:37:16.655Z,35.74
2023-01-29T22:39:45.055Z,36.36
2023-01-29T22:42:11.797Z,36.62
2023-01-29T22:44:38.637Z,35.56
2023-01-29T22:47:05.761Z,35.18
2023-01-29T22:49:32.492Z,33.76
2023-01-29T22:51:59.632Z,33.82
2023-01-29T22:54:27.278Z,32.63
2023-01-29T22:56:54.011Z,33.18
2023-01-29T22:59:20.856Z,33.17
2023-01-29T23:01:47.705Z,31.45
2023-01-29T23:04:14.486Z,32.10
2023-01-29T23:06:41.333Z,31.59
2023-01-29T23:09:08.090Z,31.33
2023-01-29T23:11:34.773Z,32.00
2023-01-29T23:14:01.481Z,31.20
2023-01-29T23:16:28.460Z,31.20
2023-01-29T23:18:55.364Z,31.45
2023-01-29T23:21:24.881Z,30.46
2023-01-29T23:23:51.752Z,30.83
2023-01-29T23:26:21.261Z,30.46
2023-01-29T23:28:48.032Z,30.71
2023-01-29T23:31:15.027Z,31.84
2023-01-29T23:33:41.844Z,31.09
2023-01-29T23:36:08.651Z,30.27
2023-01-29T23:38:35.664Z,30.19
2023-01-29T23:41:02.369Z,30.29
2023-01-29T23:43:29.124Z,30.07
2023-01-29T23:45:55.925Z,29.76
2023-01-29T23:48:23.533Z,31.81
2023-01-29T23:50:50.470Z,31.22
2023-01-29T23:53:23.391Z,30.35
2023-01-29T23:56:00.925Z,29.62
2023-01-29T23:58:27.944Z,30.15
